sensor_id;sensor_type;location;lat;lon;timestamp;temperature;humidity
36990;DHT22;22898;52.102;5.776;2023-06-14T00:00:11;26.60;54.30
36990;DHT22;22898;52.102;5.776;2023-06-14T00:02:39;26.70;54.20
36990;DHT22;22898;52.102;5.776;2023-06-14T00:05:08;26.70;54.20
36990;DHT22;22898;52.102;5.776;2023-06-14T00:07:35;26.80;54.50
36990;DHT22;22898;52.102;5.776;2023-06-14T00:10:02;26.80;54.30
36990;DHT22;22898;52.102;5.776;2023-06-14T00:12:28;26.90;54.30
36990;DHT22;22898;52.102;5.776;2023-06-14T00:14:53;26.80;54.40
36990;DHT22;22898;52.102;5.776;2023-06-14T00:17:19;26.70;54.60
36990;DHT22;22898;52.102;5.776;2023-06-14T00:19:44;26.70;54.50
36990;DHT22;22898;52.102;5.776;2023-06-14T00:22:11;26.60;54.60
36990;DHT22;22898;52.102;5.776;2023-06-14T00:24:37;26.30;55.00
36990;DHT22;22898;52.102;5.776;2023-06-14T00:27:03;26.30;55.00
36990;DHT22;22898;52.102;5.776;2023-06-14T00:29:29;26.30;55.10
36990;DHT22;22898;52.102;5.776;2023-06-14T00:31:54;26.40;55.30
36990;DHT22;22898;52.102;5.776;2023-06-14T00:34:20;26.40;55.20
36990;DHT22;22898;52.102;5.776;2023-06-14T00:36:45;26.50;55.00
36990;DHT22;22898;52.102;5.776;2023-06-14T00:39:11;26.50;55.00
36990;DHT22;22898;52.102;5.776;2023-06-14T00:41:37;26.50;54.70
36990;DHT22;22898;52.102;5.776;2023-06-14T00:44:03;26.40;55.00
36990;DHT22;22898;52.102;5.776;2023-06-14T00:46:28;26.20;55.20
36990;DHT22;22898;52.102;5.776;2023-06-14T00:48:55;26.20;55.30
36990;DHT22;22898;52.102;5.776;2023-06-14T00:51:21;26.20;55.30
36990;DHT22;22898;52.102;5.776;2023-06-14T00:53:47;26.10;55.40
36990;DHT22;22898;52.102;5.776;2023-06-14T00:56:14;26.10;55.50
36990;DHT22;22898;52.102;5.776;2023-06-14T00:58:41;26.10;55.40
36990;DHT22;22898;52.102;5.776;2023-06-14T01:01:06;26.10;55.50
36990;DHT22;22898;52.102;5.776;2023-06-14T01:03:32;26.20;55.30
36990;DHT22;22898;52.102;5.776;2023-06-14T01:06:12;26.20;55.20
36990;DHT22;22898;52.102;5.776;2023-06-14T01:12:04;26.20;55.20
36990;DHT22;22898;52.102;5.776;2023-06-14T01:14:31;26.40;55.00
36990;DHT22;22898;52.102;5.776;2023-06-14T01:16:58;26.30;54.90
36990;DHT22;22898;52.102;5.776;2023-06-14T01:19:26;26.10;55.10
36990;DHT22;22898;52.102;5.776;2023-06-14T01:21:54;26.20;55.10
36990;DHT22;22898;52.102;5.776;2023-06-14T01:24:20;26.20;55.00
36990;DHT22;22898;52.102;5.776;2023-06-14T01:26:53;26.20;55.10
36990;DHT22;22898;52.102;5.776;2023-06-14T01:29:22;26.20;55.00
36990;DHT22;22898;52.102;5.776;2023-06-14T01:31:49;26.30;55.20
36990;DHT22;22898;52.102;5.776;2023-06-14T01:34:15;26.20;55.10
36990;DHT22;22898;52.102;5.776;2023-06-14T01:36:43;26.20;55.20
36990;DHT22;22898;52.102;5.776;2023-06-14T01:39:12;26.10;55.20
36990;DHT22;22898;52.102;5.776;2023-06-14T01:41:40;25.90;55.10
36990;DHT22;22898;52.102;5.776;2023-06-14T01:44:06;26.00;55.40
36990;DHT22;22898;52.102;5.776;2023-06-14T01:46:32;25.90;55.50
36990;DHT22;22898;52.102;5.776;2023-06-14T01:48:58;26.00;55.30
36990;DHT22;22898;52.102;5.776;2023-06-14T01:51:24;26.00;55.40
36990;DHT22;22898;52.102;5.776;2023-06-14T01:53:49;26.10;55.20
36990;DHT22;22898;52.102;5.776;2023-06-14T01:56:15;26.10;55.20
36990;DHT22;22898;52.102;5.776;2023-06-14T01:58:41;26.20;55.20
36990;DHT22;22898;52.102;5.776;2023-06-14T02:01:07;26.20;54.90
36990;DHT22;22898;52.102;5.776;2023-06-14T02:03:33;26.20;54.80
36990;DHT22;22898;52.102;5.776;2023-06-14T02:05:59;26.20;55.00
36990;DHT22;22898;52.102;5.776;2023-06-14T02:08:25;26.00;55.10
36990;DHT22;22898;52.102;5.776;2023-06-14T02:10:51;26.00;55.20
36990;DHT22;22898;52.102;5.776;2023-06-14T02:13:17;26.00;55.20
36990;DHT22;22898;52.102;5.776;2023-06-14T02:15:42;26.00;55.20
36990;DHT22;22898;52.102;5.776;2023-06-14T02:18:09;25.90;55.40
36990;DHT22;22898;52.102;5.776;2023-06-14T02:20:35;25.90;55.50
36990;DHT22;22898;52.102;5.776;2023-06-14T02:23:01;25.70;55.60
36990;DHT22;22898;52.102;5.776;2023-06-14T02:25:27;25.60;56.00
36990;DHT22;22898;52.102;5.776;2023-06-14T02:27:54;25.60;56.00
36990;DHT22;22898;52.102;5.776;2023-06-14T02:30:20;25.60;55.90
36990;DHT22;22898;52.102;5.776;2023-06-14T02:32:46;25.60;56.00
36990;DHT22;22898;52.102;5.776;2023-06-14T02:35:14;25.60;55.90
36990;DHT22;22898;52.102;5.776;2023-06-14T02:37:40;25.60;56.00
36990;DHT22;22898;52.102;5.776;2023-06-14T02:40:06;25.50;56.20
36990;DHT22;22898;52.102;5.776;2023-06-14T02:42:32;25.50;56.30
36990;DHT22;22898;52.102;5.776;2023-06-14T02:44:57;25.40;56.40
36990;DHT22;22898;52.102;5.776;2023-06-14T02:47:23;25.40;56.60
36990;DHT22;22898;52.102;5.776;2023-06-14T02:49:49;25.40;56.50
36990;DHT22;22898;52.102;5.776;2023-06-14T02:52:15;25.30;56.80
36990;DHT22;22898;52.102;5.776;2023-06-14T02:54:41;25.40;56.70
36990;DHT22;22898;52.102;5.776;2023-06-14T02:57:07;25.50;56.70
36990;DHT22;22898;52.102;5.776;2023-06-14T02:59:36;25.50;56.50
36990;DHT22;22898;52.102;5.776;2023-06-14T03:02:01;25.50;56.50
36990;DHT22;22898;52.102;5.776;2023-06-14T03:04:28;25.50;56.50
36990;DHT22;22898;52.102;5.776;2023-06-14T03:06:54;25.20;57.00
36990;DHT22;22898;52.102;5.776;2023-06-14T03:09:20;25.10;57.20
36990;DHT22;22898;52.102;5.776;2023-06-14T03:11:46;25.20;57.30
36990;DHT22;22898;52.102;5.776;2023-06-14T03:14:12;25.20;56.90
36990;DHT22;22898;52.102;5.776;2023-06-14T03:16:38;25.20;57.10
36990;DHT22;22898;52.102;5.776;2023-06-14T03:19:04;25.20;57.20
36990;DHT22;22898;52.102;5.776;2023-06-14T03:21:30;25.20;57.20
36990;DHT22;22898;52.102;5.776;2023-06-14T03:23:55;25.10;57.30
36990;DHT22;22898;52.102;5.776;2023-06-14T03:26:21;25.20;57.20
36990;DHT22;22898;52.102;5.776;2023-06-14T03:28:47;25.10;57.20
36990;DHT22;22898;52.102;5.776;2023-06-14T03:31:16;24.90;57.40
36990;DHT22;22898;52.102;5.776;2023-06-14T03:33:42;24.90;57.70
36990;DHT22;22898;52.102;5.776;2023-06-14T03:36:07;24.90;57.70
36990;DHT22;22898;52.102;5.776;2023-06-14T03:38:33;24.90;57.80
36990;DHT22;22898;52.102;5.776;2023-06-14T03:40:59;24.70;58.10
36990;DHT22;22898;52.102;5.776;2023-06-14T03:43:25;24.80;58.00
36990;DHT22;22898;52.102;5.776;2023-06-14T03:45:50;24.70;57.80
36990;DHT22;22898;52.102;5.776;2023-06-14T03:48:16;24.70;58.00
36990;DHT22;22898;52.102;5.776;2023-06-14T03:50:42;24.80;57.80
36990;DHT22;22898;52.102;5.776;2023-06-14T03:53:08;24.70;57.90
36990;DHT22;22898;52.102;5.776;2023-06-14T03:55:34;24.70;58.00
36990;DHT22;22898;52.102;5.776;2023-06-14T03:58:00;24.70;58.10
36990;DHT22;22898;52.102;5.776;2023-06-14T04:00:25;24.60;58.20
36990;DHT22;22898;52.102;5.776;2023-06-14T04:02:51;24.50;58.30
36990;DHT22;22898;52.102;5.776;2023-06-14T04:05:17;24.50;58.60
36990;DHT22;22898;52.102;5.776;2023-06-14T04:07:47;24.50;58.50
36990;DHT22;22898;52.102;5.776;2023-06-14T04:10:15;24.50;58.60
36990;DHT22;22898;52.102;5.776;2023-06-14T04:12:41;24.40;58.70
36990;DHT22;22898;52.102;5.776;2023-06-14T04:15:08;24.30;59.10
36990;DHT22;22898;52.102;5.776;2023-06-14T04:17:34;24.10;59.20
36990;DHT22;22898;52.102;5.776;2023-06-14T04:20:00;24.10;59.30
36990;DHT22;22898;52.102;5.776;2023-06-14T04:22:26;24.20;59.50
36990;DHT22;22898;52.102;5.776;2023-06-14T04:24:55;24.10;59.80
36990;DHT22;22898;52.102;5.776;2023-06-14T04:27:26;24.10;59.50
36990;DHT22;22898;52.102;5.776;2023-06-14T04:29:54;24.30;59.60
36990;DHT22;22898;52.102;5.776;2023-06-14T04:32:28;24.30;59.40
36990;DHT22;22898;52.102;5.776;2023-06-14T04:34:55;24.30;59.50
36990;DHT22;22898;52.102;5.776;2023-06-14T04:37:22;24.30;59.50
36990;DHT22;22898;52.102;5.776;2023-06-14T04:39:50;24.10;59.20
36990;DHT22;22898;52.102;5.776;2023-06-14T04:42:16;24.10;59.60
36990;DHT22;22898;52.102;5.776;2023-06-14T04:44:45;24.20;59.60
36990;DHT22;22898;52.102;5.776;2023-06-14T04:47:13;24.30;59.60
36990;DHT22;22898;52.102;5.776;2023-06-14T04:49:40;24.40;60.00
36990;DHT22;22898;52.102;5.776;2023-06-14T04:52:06;24.30;59.30
36990;DHT22;22898;52.102;5.776;2023-06-14T04:54:33;24.00;59.30
36990;DHT22;22898;52.102;5.776;2023-06-14T04:56:59;24.00;60.00
36990;DHT22;22898;52.102;5.776;2023-06-14T04:59:25;23.90;60.40
36990;DHT22;22898;52.102;5.776;2023-06-14T05:01:51;24.00;60.00
36990;DHT22;22898;52.102;5.776;2023-06-14T05:04:19;24.10;60.10
36990;DHT22;22898;52.102;5.776;2023-06-14T05:06:45;24.30;59.90
36990;DHT22;22898;52.102;5.776;2023-06-14T05:09:13;24.50;59.50
36990;DHT22;22898;52.102;5.776;2023-06-14T05:11:38;24.50;59.40
36990;DHT22;22898;52.102;5.776;2023-06-14T05:14:04;24.50;59.00
36990;DHT22;22898;52.102;5.776;2023-06-14T05:16:31;24.50;59.00
36990;DHT22;22898;52.102;5.776;2023-06-14T05:18:57;24.70;59.00
36990;DHT22;22898;52.102;5.776;2023-06-14T05:21:23;24.70;58.60
36990;DHT22;22898;52.102;5.776;2023-06-14T05:23:49;24.60;59.00
36990;DHT22;22898;52.102;5.776;2023-06-14T05:26:16;24.60;58.90
36990;DHT22;22898;52.102;5.776;2023-06-14T05:28:41;24.60;58.80
36990;DHT22;22898;52.102;5.776;2023-06-14T05:31:07;24.50;58.70
36990;DHT22;22898;52.102;5.776;2023-06-14T05:33:32;24.50;59.10
36990;DHT22;22898;52.102;5.776;2023-06-14T05:35:58;24.40;59.60
36990;DHT22;22898;52.102;5.776;2023-06-14T05:38:23;24.60;59.60
36990;DHT22;22898;52.102;5.776;2023-06-14T05:40:49;24.90;58.90
36990;DHT22;22898;52.102;5.776;2023-06-14T05:43:14;25.10;58.10
36990;DHT22;22898;52.102;5.776;2023-06-14T05:45:40;25.40;57.50
36990;DHT22;22898;52.102;5.776;2023-06-14T05:48:06;25.30;57.10
36990;DHT22;22898;52.102;5.776;2023-06-14T05:50:31;25.20;57.70
36990;DHT22;22898;52.102;5.776;2023-06-14T05:52:57;25.40;57.90
36990;DHT22;22898;52.102;5.776;2023-06-14T05:55:22;25.30;57.90
36990;DHT22;22898;52.102;5.776;2023-06-14T05:57:48;25.40;57.70
36990;DHT22;22898;52.102;5.776;2023-06-14T06:00:14;25.00;57.90
36990;DHT22;22898;52.102;5.776;2023-06-14T06:02:41;24.90;58.60
36990;DHT22;22898;52.102;5.776;2023-06-14T06:05:09;24.80;58.90
36990;DHT22;22898;52.102;5.776;2023-06-14T06:07:35;24.70;59.50
36990;DHT22;22898;52.102;5.776;2023-06-14T06:10:01;24.70;58.90
36990;DHT22;22898;52.102;5.776;2023-06-14T06:12:27;25.20;58.60
36990;DHT22;22898;52.102;5.776;2023-06-14T06:14:52;25.30;58.00
36990;DHT22;22898;52.102;5.776;2023-06-14T06:17:18;25.20;57.90
36990;DHT22;22898;52.102;5.776;2023-06-14T06:19:44;25.00;58.40
36990;DHT22;22898;52.102;5.776;2023-06-14T06:22:09;24.90;58.80
36990;DHT22;22898;52.102;5.776;2023-06-14T06:24:35;24.80;59.50
36990;DHT22;22898;52.102;5.776;2023-06-14T06:27:00;24.60;59.40
36990;DHT22;22898;52.102;5.776;2023-06-14T06:29:26;24.80;60.00
36990;DHT22;22898;52.102;5.776;2023-06-14T06:31:51;25.10;58.90
36990;DHT22;22898;52.102;5.776;2023-06-14T06:34:17;25.50;58.60
36990;DHT22;22898;52.102;5.776;2023-06-14T06:36:43;25.80;57.70
36990;DHT22;22898;52.102;5.776;2023-06-14T06:39:08;26.00;57.30
36990;DHT22;22898;52.102;5.776;2023-06-14T06:41:39;26.10;57.00
36990;DHT22;22898;52.102;5.776;2023-06-14T06:44:08;26.10;57.00
36990;DHT22;22898;52.102;5.776;2023-06-14T06:46:36;26.20;56.50
36990;DHT22;22898;52.102;5.776;2023-06-14T06:49:05;26.00;57.40
36990;DHT22;22898;52.102;5.776;2023-06-14T06:51:31;25.90;56.90
36990;DHT22;22898;52.102;5.776;2023-06-14T06:53:57;25.80;57.70
36990;DHT22;22898;52.102;5.776;2023-06-14T06:56:22;25.80;57.80
36990;DHT22;22898;52.102;5.776;2023-06-14T06:58:50;26.00;57.40
36990;DHT22;22898;52.102;5.776;2023-06-14T07:01:16;26.40;57.20
36990;DHT22;22898;52.102;5.776;2023-06-14T07:03:43;26.60;56.50
36990;DHT22;22898;52.102;5.776;2023-06-14T07:06:09;26.60;56.40
36990;DHT22;22898;52.102;5.776;2023-06-14T07:08:35;26.30;56.80
36990;DHT22;22898;52.102;5.776;2023-06-14T07:11:01;26.40;56.50
36990;DHT22;22898;52.102;5.776;2023-06-14T07:13:27;26.50;56.90
36990;DHT22;22898;52.102;5.776;2023-06-14T07:15:58;26.80;56.30
36990;DHT22;22898;52.102;5.776;2023-06-14T07:18:25;27.00;55.90
36990;DHT22;22898;52.102;5.776;2023-06-14T07:20:51;26.90;55.40
36990;DHT22;22898;52.102;5.776;2023-06-14T07:23:17;26.70;55.70
36990;DHT22;22898;52.102;5.776;2023-06-14T07:25:42;26.70;55.30
36990;DHT22;22898;52.102;5.776;2023-06-14T07:28:08;26.70;55.00
36990;DHT22;22898;52.102;5.776;2023-06-14T07:30:34;26.80;55.40
36990;DHT22;22898;52.102;5.776;2023-06-14T07:33:00;26.80;55.00
36990;DHT22;22898;52.102;5.776;2023-06-14T07:35:25;26.60;55.20
36990;DHT22;22898;52.102;5.776;2023-06-14T07:37:51;26.50;54.50
36990;DHT22;22898;52.102;5.776;2023-06-14T07:40:17;26.50;54.90
36990;DHT22;22898;52.102;5.776;2023-06-14T07:42:42;26.60;54.20
36990;DHT22;22898;52.102;5.776;2023-06-14T07:45:08;26.80;54.00
36990;DHT22;22898;52.102;5.776;2023-06-14T07:47:34;26.90;53.90
36990;DHT22;22898;52.102;5.776;2023-06-14T07:49:59;27.00;53.10
36990;DHT22;22898;52.102;5.776;2023-06-14T07:52:25;27.10;53.10
36990;DHT22;22898;52.102;5.776;2023-06-14T07:54:51;27.30;52.60
36990;DHT22;22898;52.102;5.776;2023-06-14T07:57:16;27.60;52.60
36990;DHT22;22898;52.102;5.776;2023-06-14T07:59:42;27.90;52.30
36990;DHT22;22898;52.102;5.776;2023-06-14T08:02:07;27.70;52.00
36990;DHT22;22898;52.102;5.776;2023-06-14T08:04:33;28.00;52.20
36990;DHT22;22898;52.102;5.776;2023-06-14T08:07:00;28.00;51.20
36990;DHT22;22898;52.102;5.776;2023-06-14T08:09:26;27.90;50.90
36990;DHT22;22898;52.102;5.776;2023-06-14T08:11:53;28.00;51.00
36990;DHT22;22898;52.102;5.776;2023-06-14T08:14:19;27.80;49.70
36990;DHT22;22898;52.102;5.776;2023-06-14T08:16:45;27.60;50.10
36990;DHT22;22898;52.102;5.776;2023-06-14T08:19:10;27.70;50.30
36990;DHT22;22898;52.102;5.776;2023-06-14T08:21:36;27.70;50.00
36990;DHT22;22898;52.102;5.776;2023-06-14T08:24:02;27.60;50.90
36990;DHT22;22898;52.102;5.776;2023-06-14T08:26:29;27.90;50.60
36990;DHT22;22898;52.102;5.776;2023-06-14T08:28:55;27.90;50.50
36990;DHT22;22898;52.102;5.776;2023-06-14T08:31:21;27.80;50.20
36990;DHT22;22898;52.102;5.776;2023-06-14T08:33:47;28.20;50.40
36990;DHT22;22898;52.102;5.776;2023-06-14T08:36:13;28.40;50.30
36990;DHT22;22898;52.102;5.776;2023-06-14T08:38:41;28.60;49.50
36990;DHT22;22898;52.102;5.776;2023-06-14T08:41:08;28.70;48.60
36990;DHT22;22898;52.102;5.776;2023-06-14T08:43:37;28.70;48.60
36990;DHT22;22898;52.102;5.776;2023-06-14T08:46:04;28.80;48.50
36990;DHT22;22898;52.102;5.776;2023-06-14T08:48:31;28.80;48.70
36990;DHT22;22898;52.102;5.776;2023-06-14T08:51:01;28.90;48.60
36990;DHT22;22898;52.102;5.776;2023-06-14T08:53:30;28.70;48.50
36990;DHT22;22898;52.102;5.776;2023-06-14T08:55:58;28.60;47.90
36990;DHT22;22898;52.102;5.776;2023-06-14T08:58:27;28.80;48.90
36990;DHT22;22898;52.102;5.776;2023-06-14T09:00:55;29.00;48.40
36990;DHT22;22898;52.102;5.776;2023-06-14T09:03:21;28.90;48.40
36990;DHT22;22898;52.102;5.776;2023-06-14T09:05:48;28.80;48.60
36990;DHT22;22898;52.102;5.776;2023-06-14T09:08:15;29.00;48.30
36990;DHT22;22898;52.102;5.776;2023-06-14T09:10:41;29.50;48.70
36990;DHT22;22898;52.102;5.776;2023-06-14T09:13:07;29.70;48.50
36990;DHT22;22898;52.102;5.776;2023-06-14T09:15:33;29.80;48.20
36990;DHT22;22898;52.102;5.776;2023-06-14T09:18:01;29.80;48.80
36990;DHT22;22898;52.102;5.776;2023-06-14T09:20:28;29.50;48.50
36990;DHT22;22898;52.102;5.776;2023-06-14T09:22:54;29.30;48.10
36990;DHT22;22898;52.102;5.776;2023-06-14T09:25:20;29.50;48.50
36990;DHT22;22898;52.102;5.776;2023-06-14T09:27:47;29.60;47.70
36990;DHT22;22898;52.102;5.776;2023-06-14T09:30:12;29.30;47.50
36990;DHT22;22898;52.102;5.776;2023-06-14T09:32:41;29.00;47.90
36990;DHT22;22898;52.102;5.776;2023-06-14T09:35:07;28.50;48.40
36990;DHT22;22898;52.102;5.776;2023-06-14T09:37:34;28.70;49.60
36990;DHT22;22898;52.102;5.776;2023-06-14T09:40:00;28.80;48.90
36990;DHT22;22898;52.102;5.776;2023-06-14T09:42:26;28.90;49.30
36990;DHT22;22898;52.102;5.776;2023-06-14T09:44:55;28.90;49.00
36990;DHT22;22898;52.102;5.776;2023-06-14T09:47:21;29.10;48.80
36990;DHT22;22898;52.102;5.776;2023-06-14T09:49:48;29.60;48.20
36990;DHT22;22898;52.102;5.776;2023-06-14T09:52:18;29.80;47.20
36990;DHT22;22898;52.102;5.776;2023-06-14T09:54:46;29.80;47.40
36990;DHT22;22898;52.102;5.776;2023-06-14T09:57:17;29.80;47.10
36990;DHT22;22898;52.102;5.776;2023-06-14T09:59:46;29.70;48.00
36990;DHT22;22898;52.102;5.776;2023-06-14T10:04:46;29.40;47.60
36990;DHT22;22898;52.102;5.776;2023-06-14T10:07:18;29.30;47.70
36990;DHT22;22898;52.102;5.776;2023-06-14T10:09:45;29.20;47.70
36990;DHT22;22898;52.102;5.776;2023-06-14T10:12:16;29.30;48.10
36990;DHT22;22898;52.102;5.776;2023-06-14T10:14:49;29.40;48.20
36990;DHT22;22898;52.102;5.776;2023-06-14T10:17:59;29.50;48.40
36990;DHT22;22898;52.102;5.776;2023-06-14T10:21:01;29.10;48.00
36990;DHT22;22898;52.102;5.776;2023-06-14T10:23:31;29.30;48.00
36990;DHT22;22898;52.102;5.776;2023-06-14T10:25:59;29.40;47.30
36990;DHT22;22898;52.102;5.776;2023-06-14T10:28:25;29.50;47.80
36990;DHT22;22898;52.102;5.776;2023-06-14T10:31:11;29.80;48.10
36990;DHT22;22898;52.102;5.776;2023-06-14T10:33:49;30.10;47.40
36990;DHT22;22898;52.102;5.776;2023-06-14T10:36:30;30.30;46.70
36990;DHT22;22898;52.102;5.776;2023-06-14T10:39:16;29.90;47.30
36990;DHT22;22898;52.102;5.776;2023-06-14T10:41:54;29.70;47.80
36990;DHT22;22898;52.102;5.776;2023-06-14T10:46:55;30.30;45.70
36990;DHT22;22898;52.102;5.776;2023-06-14T10:49:44;30.20;46.00
36990;DHT22;22898;52.102;5.776;2023-06-14T10:52:12;30.20;46.40
36990;DHT22;22898;52.102;5.776;2023-06-14T10:55:02;30.30;44.80
36990;DHT22;22898;52.102;5.776;2023-06-14T10:57:32;29.90;46.20
36990;DHT22;22898;52.102;5.776;2023-06-14T10:59:59;29.90;46.50
36990;DHT22;22898;52.102;5.776;2023-06-14T11:02:51;29.90;47.10
36990;DHT22;22898;52.102;5.776;2023-06-14T11:05:29;29.80;46.40
36990;DHT22;22898;52.102;5.776;2023-06-14T11:11:00;30.10;46.70
36990;DHT22;22898;52.102;5.776;2023-06-14T11:13:26;30.10;46.60
36990;DHT22;22898;52.102;5.776;2023-06-14T11:15:52;29.80;47.10
36990;DHT22;22898;52.102;5.776;2023-06-14T11:18:23;29.90;46.50
36990;DHT22;22898;52.102;5.776;2023-06-14T11:20:53;30.20;46.60
36990;DHT22;22898;52.102;5.776;2023-06-14T11:23:19;29.90;47.10
36990;DHT22;22898;52.102;5.776;2023-06-14T11:25:50;29.90;46.80
36990;DHT22;22898;52.102;5.776;2023-06-14T11:28:16;30.20;46.50
36990;DHT22;22898;52.102;5.776;2023-06-14T11:30:42;30.50;46.10
36990;DHT22;22898;52.102;5.776;2023-06-14T11:33:10;30.50;45.90
36990;DHT22;22898;52.102;5.776;2023-06-14T11:35:36;30.30;45.10
36990;DHT22;22898;52.102;5.776;2023-06-14T11:38:02;30.20;45.30
36990;DHT22;22898;52.102;5.776;2023-06-14T11:40:28;29.80;45.00
36990;DHT22;22898;52.102;5.776;2023-06-14T11:43:01;29.80;45.60
36990;DHT22;22898;52.102;5.776;2023-06-14T11:45:27;30.30;45.90
36990;DHT22;22898;52.102;5.776;2023-06-14T11:47:55;30.60;45.60
36990;DHT22;22898;52.102;5.776;2023-06-14T11:50:24;30.90;45.50
36990;DHT22;22898;52.102;5.776;2023-06-14T11:52:57;31.00;44.20
36990;DHT22;22898;52.102;5.776;2023-06-14T11:55:25;30.80;44.80
36990;DHT22;22898;52.102;5.776;2023-06-14T11:57:51;30.70;44.30
36990;DHT22;22898;52.102;5.776;2023-06-14T12:00:17;30.80;45.10
36990;DHT22;22898;52.102;5.776;2023-06-14T12:02:52;30.90;45.00
36990;DHT22;22898;52.102;5.776;2023-06-14T12:05:21;30.70;45.50
36990;DHT22;22898;52.102;5.776;2023-06-14T12:07:47;30.60;45.70
36990;DHT22;22898;52.102;5.776;2023-06-14T12:10:14;30.80;45.90
36990;DHT22;22898;52.102;5.776;2023-06-14T12:12:40;31.00;46.20
36990;DHT22;22898;52.102;5.776;2023-06-14T12:15:09;30.70;46.30
36990;DHT22;22898;52.102;5.776;2023-06-14T12:17:37;30.60;45.80
36990;DHT22;22898;52.102;5.776;2023-06-14T12:20:14;30.70;47.00
36990;DHT22;22898;52.102;5.776;2023-06-14T12:22:56;30.60;47.30
36990;DHT22;22898;52.102;5.776;2023-06-14T12:25:30;30.80;48.00
36990;DHT22;22898;52.102;5.776;2023-06-14T12:27:57;31.10;47.00
36990;DHT22;22898;52.102;5.776;2023-06-14T12:30:23;31.30;46.00
36990;DHT22;22898;52.102;5.776;2023-06-14T12:32:49;31.30;45.90
36990;DHT22;22898;52.102;5.776;2023-06-14T12:35:17;31.30;46.30
36990;DHT22;22898;52.102;5.776;2023-06-14T12:37:43;31.50;45.00
36990;DHT22;22898;52.102;5.776;2023-06-14T12:40:09;31.30;44.90
36990;DHT22;22898;52.102;5.776;2023-06-14T12:42:36;31.50;44.70
36990;DHT22;22898;52.102;5.776;2023-06-14T12:45:02;31.20;44.70
36990;DHT22;22898;52.102;5.776;2023-06-14T12:47:28;31.20;45.00
36990;DHT22;22898;52.102;5.776;2023-06-14T12:49:53;31.00;46.30
36990;DHT22;22898;52.102;5.776;2023-06-14T12:52:19;30.80;46.60
36990;DHT22;22898;52.102;5.776;2023-06-14T12:54:45;30.90;46.90
36990;DHT22;22898;52.102;5.776;2023-06-14T12:57:10;31.20;47.50
36990;DHT22;22898;52.102;5.776;2023-06-14T12:59:36;31.00;46.30
36990;DHT22;22898;52.102;5.776;2023-06-14T13:02:16;31.10;46.90
36990;DHT22;22898;52.102;5.776;2023-06-14T13:04:42;31.10;47.30
36990;DHT22;22898;52.102;5.776;2023-06-14T13:07:08;30.90;47.40
36990;DHT22;22898;52.102;5.776;2023-06-14T13:09:36;31.10;46.90
36990;DHT22;22898;52.102;5.776;2023-06-14T13:12:01;31.20;47.10
36990;DHT22;22898;52.102;5.776;2023-06-14T13:14:27;31.30;47.00
36990;DHT22;22898;52.102;5.776;2023-06-14T13:16:53;31.30;46.70
36990;DHT22;22898;52.102;5.776;2023-06-14T13:19:18;31.00;46.70
36990;DHT22;22898;52.102;5.776;2023-06-14T13:21:44;30.80;46.80
36990;DHT22;22898;52.102;5.776;2023-06-14T13:24:09;30.90;46.60
36990;DHT22;22898;52.102;5.776;2023-06-14T13:26:35;31.10;46.90
36990;DHT22;22898;52.102;5.776;2023-06-14T13:29:00;31.40;46.00
36990;DHT22;22898;52.102;5.776;2023-06-14T13:31:26;31.60;45.20
36990;DHT22;22898;52.102;5.776;2023-06-14T13:33:52;31.60;45.10
36990;DHT22;22898;52.102;5.776;2023-06-14T13:36:17;31.80;44.70
36990;DHT22;22898;52.102;5.776;2023-06-14T13:38:43;31.60;43.90
36990;DHT22;22898;52.102;5.776;2023-06-14T13:41:08;31.50;44.20
36990;DHT22;22898;52.102;5.776;2023-06-14T13:43:34;30.90;45.30
36990;DHT22;22898;52.102;5.776;2023-06-14T13:46:00;31.10;44.50
36990;DHT22;22898;52.102;5.776;2023-06-14T13:48:25;31.30;44.60
36990;DHT22;22898;52.102;5.776;2023-06-14T13:50:51;31.80;44.90
36990;DHT22;22898;52.102;5.776;2023-06-14T13:53:17;32.00;44.10
36990;DHT22;22898;52.102;5.776;2023-06-14T13:55:43;31.70;44.10
36990;DHT22;22898;52.102;5.776;2023-06-14T13:58:08;31.50;44.90
36990;DHT22;22898;52.102;5.776;2023-06-14T14:00:34;31.70;44.60
36990;DHT22;22898;52.102;5.776;2023-06-14T14:03:02;31.80;44.60
36990;DHT22;22898;52.102;5.776;2023-06-14T14:05:28;32.20;44.70
36990;DHT22;22898;52.102;5.776;2023-06-14T14:07:55;32.00;45.20
36990;DHT22;22898;52.102;5.776;2023-06-14T14:10:23;32.00;44.70
36990;DHT22;22898;52.102;5.776;2023-06-14T14:12:49;32.10;44.60
36990;DHT22;22898;52.102;5.776;2023-06-14T14:15:14;32.20;44.20
36990;DHT22;22898;52.102;5.776;2023-06-14T14:17:41;32.30;44.60
36990;DHT22;22898;52.102;5.776;2023-06-14T14:20:07;32.50;44.70
36990;DHT22;22898;52.102;5.776;2023-06-14T14:22:33;32.60;44.30
36990;DHT22;22898;52.102;5.776;2023-06-14T14:24:58;32.50;44.40
36990;DHT22;22898;52.102;5.776;2023-06-14T14:27:24;32.20;44.30
36990;DHT22;22898;52.102;5.776;2023-06-14T14:29:50;32.40;45.00
36990;DHT22;22898;52.102;5.776;2023-06-14T14:32:15;32.30;45.20
36990;DHT22;22898;52.102;5.776;2023-06-14T14:34:41;32.10;44.80
36990;DHT22;22898;52.102;5.776;2023-06-14T14:37:06;32.10;44.90
36990;DHT22;22898;52.102;5.776;2023-06-14T14:39:32;31.70;44.80
36990;DHT22;22898;52.102;5.776;2023-06-14T14:41:58;31.60;46.00
36990;DHT22;22898;52.102;5.776;2023-06-14T14:44:24;31.60;45.50
36990;DHT22;22898;52.102;5.776;2023-06-14T14:46:49;31.60;45.40
36990;DHT22;22898;52.102;5.776;2023-06-14T14:49:15;31.60;45.90
36990;DHT22;22898;52.102;5.776;2023-06-14T14:51:40;32.00;45.70
36990;DHT22;22898;52.102;5.776;2023-06-14T14:54:06;32.40;45.30
36990;DHT22;22898;52.102;5.776;2023-06-14T14:56:32;32.50;45.20
36990;DHT22;22898;52.102;5.776;2023-06-14T14:58:58;32.20;45.30
36990;DHT22;22898;52.102;5.776;2023-06-14T15:01:23;32.00;45.70
36990;DHT22;22898;52.102;5.776;2023-06-14T15:03:49;31.60;45.10
36990;DHT22;22898;52.102;5.776;2023-06-14T15:06:15;31.50;45.10
36990;DHT22;22898;52.102;5.776;2023-06-14T15:08:40;31.50;45.50
36990;DHT22;22898;52.102;5.776;2023-06-14T15:11:06;31.60;45.50
36990;DHT22;22898;52.102;5.776;2023-06-14T15:13:32;31.50;44.80
36990;DHT22;22898;52.102;5.776;2023-06-14T15:15:57;31.90;45.40
36990;DHT22;22898;52.102;5.776;2023-06-14T15:18:23;32.10;43.80
36990;DHT22;22898;52.102;5.776;2023-06-14T15:20:49;32.30;44.60
36990;DHT22;22898;52.102;5.776;2023-06-14T15:23:15;32.20;45.40
36990;DHT22;22898;52.102;5.776;2023-06-14T15:25:45;32.50;45.40
36990;DHT22;22898;52.102;5.776;2023-06-14T15:28:11;32.40;45.30
36990;DHT22;22898;52.102;5.776;2023-06-14T15:30:37;32.20;45.60
36990;DHT22;22898;52.102;5.776;2023-06-14T15:33:03;32.10;46.10
36990;DHT22;22898;52.102;5.776;2023-06-14T15:35:28;32.10;45.60
36990;DHT22;22898;52.102;5.776;2023-06-14T15:37:54;32.20;45.60
36990;DHT22;22898;52.102;5.776;2023-06-14T15:40:20;32.20;45.60